WetterOnline ( https://www.wetteronline.de )

Wetter aktuell Leck

Aktuelles Wetter: Leck (17m)

6-stündlich | Neueste Meldungen
Ortszeit Temperatur Wetter
So, 26.05. 2:00 10.4° C wolkig
Sa, 25.05. 20:00 11.7° C bedeckt
Sa, 25.05. 14:00 11.8° C bedeckt
Sa, 25.05. 8:00 10.6° C bedeckt
Sa, 25.05. 2:00 10.4° C bewölkt
Fr, 24.05. 20:00 11.4° C bewölkt
Fr, 24.05. 14:00 15.0° C wolkig
Fr, 24.05. 8:00 13.4° C wolkig
Ortszeit Temperatur Wetter
So, 26.05. 3:30 10.6° C bewölkt
So, 26.05. 3:20 10.6° C bewölkt
So, 26.05. 3:10 10.5° C bewölkt
So, 26.05. 3:00 10.5° C wolkig
So, 26.05. 2:50 10.5° C wolkig
So, 26.05. 2:40 10.5° C wolkig
So, 26.05. 2:30 10.4° C wolkig
So, 26.05. 2:00 10.4° C wolkig
So, 26.05. 1:30 10.5° C bewölkt
So, 26.05. 1:00 10.4° C wolkig
So, 26.05. 0:30 10.4° C bewölkt
Ortszeit Relative Feuchte Sichtweite
So, 26.05. 2:00 87% 28 km
Sa, 25.05. 20:00 76% 40 km
Sa, 25.05. 14:00 74% 23 km
Sa, 25.05. 8:00 78% 35 km
Sa, 25.05. 2:00 78% 30 km
Fr, 24.05. 20:00 82% -
Fr, 24.05. 14:00 70% -
Fr, 24.05. 8:00 70% -
Ortszeit Relative Feuchte Sichtweite
So, 26.05. 3:30 85% 30 km
So, 26.05. 3:20 85% -
So, 26.05. 3:10 86% -
So, 26.05. 3:00 86% 30 km
So, 26.05. 2:50 86% -
So, 26.05. 2:40 85% -
So, 26.05. 2:30 86% 29 km
So, 26.05. 2:00 87% 28 km
So, 26.05. 1:30 84% 30 km
So, 26.05. 1:00 85% 29 km
So, 26.05. 0:30 84% 30 km
Ortszeit Niederschlagsmenge Niederschlagsart
So, 26.05. 2:00 0.1 l/m2 in 6 Std. Regen
Sa, 25.05. 20:00 0.0 l/m2 in 12 Std. -
Sa, 25.05. 14:00 0.0 l/m2 in 6 Std. -
Sa, 25.05. 8:00 0.1 l/m2 in 12 Std. -
Sa, 25.05. 2:00 0.1 l/m2 in 6 Std. Sprühregen
Fr, 24.05. 20:00 0.1 l/m2 in 12 Std. -
Fr, 24.05. 14:00 0.0 l/m2 in 6 Std. -
Fr, 24.05. 8:00 0.0 l/m2 in 12 Std. -
Ortszeit Niederschlagsmenge Niederschlagsart
So, 26.05. 3:30 0.0 l/m2 in 1 Std. -
So, 26.05. 3:20 keine Meldung -
So, 26.05. 3:10 keine Meldung -
So, 26.05. 3:00 0.0 l/m2 in 1 Std. -
So, 26.05. 2:50 keine Meldung -
So, 26.05. 2:40 keine Meldung -
So, 26.05. 2:30 0.0 l/m2 in 1 Std. -
So, 26.05. 2:00 0.0 l/m2 in 1 Std. Regen
So, 26.05. 1:30 0.0 l/m2 in 1 Std. -
So, 26.05. 1:00 0.0 l/m2 in 1 Std. -
So, 26.05. 0:30 0.0 l/m2 in 1 Std. -
Ortszeit Stärke Spitze Richtung
km/h Bft. km/h Grad Sektor
So, 26.05. 2:00 15 3 39 240° SW
Sa, 25.05. 20:00 22 4 40 270° W
Sa, 25.05. 14:00 24 4 37 300° NW
Sa, 25.05. 8:00 19 3 30 280° W
Sa, 25.05. 2:00 17 3 33 300° NW
Fr, 24.05. 20:00 20 4 46 280° W
Fr, 24.05. 14:00 30 5 44 270° W
Fr, 24.05. 8:00 15 3 26 220° SW
Ortszeit Stärke Spitze Richtung
km/h Bft. km/h Grad Sektor
So, 26.05. 3:30 19 3 26 220° SW
So, 26.05. 3:20 19 3 - 220° SW
So, 26.05. 3:10 18 3 - 230° SW
So, 26.05. 3:00 14 3 25 230° SW
So, 26.05. 2:50 14 3 - 230° SW
So, 26.05. 2:40 17 3 - 240° SW
So, 26.05. 2:30 18 3 25 230° SW
So, 26.05. 2:00 15 3 24 240° SW
So, 26.05. 1:30 17 3 22 240° SW
So, 26.05. 1:00 17 3 28 240° SW
So, 26.05. 0:30 14 3 22 250° W
Ortszeit Untergrenze Bedeckung Gattung
total tief tief mittel hoch
So, 26.05. 2:00 450 m 8/8 1/8 - - -
Sa, 25.05. 20:00 540 m 8/8 8/8 - - -
Sa, 25.05. 14:00 570 m 8/8 8/8 - - -
Sa, 25.05. 8:00 510 m 8/8 8/8 - - -
Sa, 25.05. 2:00 780 m 8/8 7/8 - - -
Fr, 24.05. 20:00 480 m 7/8 7/8 - - -
Fr, 24.05. 14:00 600 m 8/8 3/8 - - -
Fr, 24.05. 8:00 1470 m 6/8 6/8 - - -
Ortszeit Bedeckungsgrad in Achtel und Wolkenuntergrenze
So, 26.05. 3:30 2(450m) 7(1200m) 8(6600m)
So, 26.05. 3:20 2(450m) 7(1200m) 8(6600m)
So, 26.05. 3:10 3(450m) 7(1140m) 8(3900m)
So, 26.05. 3:00 2(420m) 8(3000m) 8(4200m)
So, 26.05. 2:50 2(420m) 8(3000m) 8(4200m)
So, 26.05. 2:40 3(930m) 8(3000m) 8(4200m)
So, 26.05. 2:30 2(1200m) 8(3000m) 8(5100m)
So, 26.05. 2:00 1(450m) 8(3600m) 8(4200m)
So, 26.05. 1:30 6(690m) 8(3900m) 8(6300m)
So, 26.05. 1:00 3(540m) 8(4200m) 8(6600m)
So, 26.05. 0:30 5(540m) 8(4500m) 8(5700m)
Ortszeit Luftdruck NN (hPa) Tendenz (hPa in 3 Std.)
So, 26.05. 2:00 1013 - 1,6
Sa, 25.05. 20:00 1015 - 0,8
Sa, 25.05. 14:00 1016 + 0,7
Sa, 25.05. 8:00 1014 + 0,5
Sa, 25.05. 2:00 1013 + 0,2
Fr, 24.05. 20:00 1012 + 0,1
Fr, 24.05. 14:00 1012 + 0,2
Fr, 24.05. 8:00 1012 - 0,6
Ortszeit Luftdruck NN (hPa) Tendenz (hPa in 3 Std.)
So, 26.05. 3:30 1012 - 2,3
So, 26.05. 3:20 1012 keine Meldung
So, 26.05. 3:10 1012 keine Meldung
So, 26.05. 3:00 1012 - 2,2
So, 26.05. 2:50 1012 keine Meldung
So, 26.05. 2:40 1013 keine Meldung
So, 26.05. 2:30 1013 - 1,9
So, 26.05. 2:00 1013 - 1,6
So, 26.05. 1:30 1014 - 1,3
So, 26.05. 1:00 1014 - 1,0
So, 26.05. 0:30 1014 - 0,6
Ortszeit Schneehöhe (cm)
So, 26.05. 2:00 -
Sa, 25.05. 20:00 -
Sa, 25.05. 14:00 -
Sa, 25.05. 8:00 -
Sa, 25.05. 2:00 -
Fr, 24.05. 20:00 -
Fr, 24.05. 14:00 -
Fr, 24.05. 8:00 -
Ortszeit Schneehöhe (cm)
So, 26.05. 3:30 -
So, 26.05. 3:20 -
So, 26.05. 3:10 -
So, 26.05. 3:00 -
So, 26.05. 2:50 -
So, 26.05. 2:40 -
So, 26.05. 2:30 -
So, 26.05. 2:00 -
So, 26.05. 1:30 -
So, 26.05. 1:00 -
So, 26.05. 0:30 -
Link zu dieser Seite / Seite empfehlen

Das Wetter in ...